sensor_id;sensor_type;location;lat;lon;timestamp;pressure;altitude;pressure_sealevel;temperature;humidity
14343;BME280;7255;53.596;9.960;2023-07-13T00:01:59;101051.50;;;16.27;100.00
14343;BME280;7255;53.596;9.960;2023-07-13T00:04:26;101050.00;;;16.14;100.00
14343;BME280;7255;53.596;9.960;2023-07-13T00:06:52;101043.41;;;16.05;100.00
14343;BME280;7255;53.596;9.960;2023-07-13T00:09:20;101048.50;;;16.02;100.00
14343;BME280;7255;53.596;9.960;2023-07-13T00:11:51;101044.41;;;15.99;100.00
14343;BME280;7255;53.596;9.960;2023-07-13T00:14:18;101030.50;;;15.90;100.00
14343;BME280;7255;53.596;9.960;2023-07-13T00:16:46;101036.13;;;15.67;100.00
14343;BME280;7255;53.596;9.960;2023-07-13T00:19:13;101035.94;;;15.73;100.00
14343;BME280;7255;53.596;9.960;2023-07-13T00:21:40;101037.59;;;15.74;100.00
14343;BME280;7255;53.596;9.960;2023-07-13T00:24:07;101040.06;;;15.76;100.00
14343;BME280;7255;53.596;9.960;2023-07-13T00:26:33;101039.72;;;15.72;100.00
14343;BME280;7255;53.596;9.960;2023-07-13T00:29:00;101035.94;;;15.73;100.00
14343;BME280;7255;53.596;9.960;2023-07-13T00:31:26;101032.66;;;15.71;100.00
14343;BME280;7255;53.596;9.960;2023-07-13T00:33:54;101039.41;;;15.69;100.00
14343;BME280;7255;53.596;9.960;2023-07-13T00:36:21;101036.94;;;15.67;100.00
14343;BME280;7255;53.596;9.960;2023-07-13T00:38:47;101035.31;;;15.66;100.00
14343;BME280;7255;53.596;9.960;2023-07-13T00:41:13;101035.81;;;15.63;100.00
14343;BME280;7255;53.596;9.960;2023-07-13T00:43:40;101040.41;;;15.63;100.00
14343;BME280;7255;53.596;9.960;2023-07-13T00:46:18;101040.56;;;15.56;100.00
14343;BME280;7255;53.596;9.960;2023-07-13T00:48:46;101046.00;;;15.56;100.00
14343;BME280;7255;53.596;9.960;2023-07-13T00:51:16;101039.44;;;15.52;100.00
14343;BME280;7255;53.596;9.960;2023-07-13T00:53:45;101057.00;;;15.49;100.00
14343;BME280;7255;53.596;9.960;2023-07-13T00:56:11;101045.69;;;15.52;100.00
14343;BME280;7255;53.596;9.960;2023-07-13T00:58:39;101048.13;;;15.54;100.00
14343;BME280;7255;53.596;9.960;2023-07-13T01:01:05;101054.56;;;15.48;100.00
14343;BME280;7255;53.596;9.960;2023-07-13T01:03:31;101052.91;;;15.47;100.00
14343;BME280;7255;53.596;9.960;2023-07-13T01:05:58;101046.84;;;15.39;100.00
14343;BME280;7255;53.596;9.960;2023-07-13T01:08:25;101060.16;;;15.41;100.00
14343;BME280;7255;53.596;9.960;2023-07-13T01:10:53;101058.16;;;15.36;100.00
14343;BME280;7255;53.596;9.960;2023-07-13T01:13:20;101054.41;;;15.37;100.00
14343;BME280;7255;53.596;9.960;2023-07-13T01:15:48;101057.28;;;15.31;100.00
14343;BME280;7255;53.596;9.960;2023-07-13T01:18:18;101056.22;;;15.32;100.00
14343;BME280;7255;53.596;9.960;2023-07-13T01:20:51;101049.16;;;15.31;100.00
14343;BME280;7255;53.596;9.960;2023-07-13T01:23:17;101054.09;;;15.34;100.00
14343;BME280;7255;53.596;9.960;2023-07-13T01:25:44;101054.41;;;15.37;100.00
14343;BME280;7255;53.596;9.960;2023-07-13T01:28:11;101050.31;;;15.35;100.00
14343;BME280;7255;53.596;9.960;2023-07-13T01:30:37;101041.94;;;15.36;100.00
14343;BME280;7255;53.596;9.960;2023-07-13T01:33:05;101053.41;;;15.44;100.00
14343;BME280;7255;53.596;9.960;2023-07-13T01:35:32;101060.63;;;15.38;100.00
14343;BME280;7255;53.596;9.960;2023-07-13T01:38:00;101052.91;;;15.47;100.00
14343;BME280;7255;53.596;9.960;2023-07-13T01:40:27;101055.69;;;15.52;100.00
14343;BME280;7255;53.596;9.960;2023-07-13T01:42:53;101046.31;;;15.59;100.00
14343;BME280;7255;53.596;9.960;2023-07-13T01:45:19;101035.16;;;15.56;100.00
14343;BME280;7255;53.596;9.960;2023-07-13T01:47:46;101043.84;;;15.58;100.00
14343;BME280;7255;53.596;9.960;2023-07-13T01:50:12;101042.22;;;15.57;100.00
14343;BME280;7255;53.596;9.960;2023-07-13T01:52:38;101038.44;;;15.58;100.00
14343;BME280;7255;53.596;9.960;2023-07-13T01:55:07;101043.37;;;15.61;100.00
14343;BME280;7255;53.596;9.960;2023-07-13T01:57:34;101043.84;;;15.58;100.00
14343;BME280;7255;53.596;9.960;2023-07-13T02:00:02;101041.91;;;15.53;100.00
14343;BME280;7255;53.596;9.960;2023-07-13T02:02:29;101038.88;;;15.50;100.00
14343;BME280;7255;53.596;9.960;2023-07-13T02:04:56;101053.22;;;15.50;100.00
14343;BME280;7255;53.596;9.960;2023-07-13T02:07:22;101054.56;;;15.48;100.00
14343;BME280;7255;53.596;9.960;2023-07-13T02:09:48;101042.72;;;15.54;100.00
14343;BME280;7255;53.596;9.960;2023-07-13T02:12:16;101042.72;;;15.54;100.00
14343;BME280;7255;53.596;9.960;2023-07-13T02:14:42;101039.44;;;15.52;100.00
14343;BME280;7255;53.596;9.960;2023-07-13T02:17:09;101043.72;;;15.48;100.00
14343;BME280;7255;53.596;9.960;2023-07-13T02:19:36;101052.09;;;15.46;100.00
14343;BME280;7255;53.596;9.960;2023-07-13T02:22:02;101053.91;;;15.40;100.00
14343;BME280;7255;53.596;9.960;2023-07-13T02:24:29;101057.19;;;15.43;100.00
14343;BME280;7255;53.596;9.960;2023-07-13T02:26:55;101055.53;;;15.42;100.00
14343;BME280;7255;53.596;9.960;2023-07-13T02:29:23;101066.63;;;15.40;100.00
14343;BME280;7255;53.596;9.960;2023-07-13T02:31:49;101059.34;;;15.40;100.00
14343;BME280;7255;53.596;9.960;2023-07-13T02:34:15;101061.44;;;15.38;100.00
14343;BME280;7255;53.596;9.960;2023-07-13T02:36:42;101054.09;;;15.34;100.00
14343;BME280;7255;53.596;9.960;2023-07-13T02:39:09;101054.41;;;15.37;100.00
14343;BME280;7255;53.596;9.960;2023-07-13T02:41:37;101056.53;;;15.35;100.00
14343;BME280;7255;53.596;9.960;2023-07-13T02:44:03;101046.69;;;15.29;100.00
14343;BME280;7255;53.596;9.960;2023-07-13T02:46:33;101042.28;;;15.23;100.00
14343;BME280;7255;53.596;9.960;2023-07-13T02:49:01;101057.53;;;15.29;100.00
14343;BME280;7255;53.596;9.960;2023-07-13T02:51:27;101057.03;;;15.32;100.00
14343;BME280;7255;53.596;9.960;2023-07-13T02:53:54;101053.28;;;15.33;100.00
14343;BME280;7255;53.596;9.960;2023-07-13T02:56:23;101049.34;;;15.24;100.00
14343;BME280;7255;53.596;9.960;2023-07-13T02:58:49;101052.62;;;15.26;100.00
14343;BME280;7255;53.596;9.960;2023-07-13T03:01:16;101053.09;;;15.23;100.00
14343;BME280;7255;53.596;9.960;2023-07-13T03:03:45;101058.53;;;15.23;100.00
14343;BME280;7255;53.596;9.960;2023-07-13T03:06:12;101053.25;;;15.16;100.00
14343;BME280;7255;53.596;9.960;2023-07-13T03:08:39;101051.97;;;15.19;100.00
14343;BME280;7255;53.596;9.960;2023-07-13T03:11:07;101054.44;;;15.20;100.00
14343;BME280;7255;53.596;9.960;2023-07-13T03:13:34;101052.47;;;15.16;100.00
14343;BME280;7255;53.596;9.960;2023-07-13T03:16:01;101048.19;;;15.20;100.00
14343;BME280;7255;53.596;9.960;2023-07-13T03:18:27;101043.28;;;15.17;100.00
14343;BME280;7255;53.596;9.960;2023-07-13T03:20:55;101045.09;;;15.11;100.00
14343;BME280;7255;53.596;9.960;2023-07-13T03:23:22;101044.25;;;15.11;100.00
14343;BME280;7255;53.596;9.960;2023-07-13T03:25:49;101046.38;;;15.09;100.00
14343;BME280;7255;53.596;9.960;2023-07-13T03:28:16;101042.31;;;15.06;100.00
14343;BME280;7255;53.596;9.960;2023-07-13T03:30:42;101044.78;;;15.08;100.00
14343;BME280;7255;53.596;9.960;2023-07-13T03:33:08;101044.78;;;15.08;100.00
14343;BME280;7255;53.596;9.960;2023-07-13T03:35:35;101050.66;;;15.05;100.00
14343;BME280;7255;53.596;9.960;2023-07-13T03:38:02;101049.84;;;15.04;100.00
14343;BME280;7255;53.596;9.960;2023-07-13T03:40:29;101041.97;;;15.02;100.00
14343;BME280;7255;53.596;9.960;2023-07-13T03:42:55;101046.91;;;15.06;100.00
14343;BME280;7255;53.596;9.960;2023-07-13T03:45:22;101045.56;;;15.08;100.00
14343;BME280;7255;53.596;9.960;2023-07-13T03:47:48;101044.78;;;15.08;100.00
14343;BME280;7255;53.596;9.960;2023-07-13T03:50:14;101039.34;;;15.08;100.00
14343;BME280;7255;53.596;9.960;2023-07-13T03:52:41;101033.94;;;15.08;100.00
14343;BME280;7255;53.596;9.960;2023-07-13T03:55:09;101054.25;;;15.10;100.00
14343;BME280;7255;53.596;9.960;2023-07-13T03:57:35;101048.03;;;15.10;100.00
14343;BME280;7255;53.596;9.960;2023-07-13T04:00:01;101051.47;;;15.05;100.00
14343;BME280;7255;53.596;9.960;2023-07-13T04:02:28;101049.00;;;15.04;100.00
14343;BME280;7255;53.596;9.960;2023-07-13T04:04:54;101052.31;;;15.06;100.00
14343;BME280;7255;53.596;9.960;2023-07-13T04:07:20;101057.72;;;15.06;100.00
14343;BME280;7255;53.596;9.960;2023-07-13T04:09:46;101048.19;;;15.03;100.00
14343;BME280;7255;53.596;9.960;2023-07-13T04:12:15;101048.88;;;14.93;100.00
14343;BME280;7255;53.596;9.960;2023-07-13T04:14:41;101047.53;;;14.96;100.00
14343;BME280;7255;53.596;9.960;2023-07-13T04:17:07;101046.72;;;14.95;100.00
14343;BME280;7255;53.596;9.960;2023-07-13T04:19:33;101054.41;;;15.04;100.00
14343;BME280;7255;53.596;9.960;2023-07-13T04:22:00;101056.56;;;15.01;100.00
14343;BME280;7255;53.596;9.960;2023-07-13T04:24:26;101055.06;;;15.11;100.00
14343;BME280;7255;53.596;9.960;2023-07-13T04:26:52;101046.72;;;15.12;100.00
14343;BME280;7255;53.596;9.960;2023-07-13T04:29:20;101049.34;;;15.07;100.00
14343;BME280;7255;53.596;9.960;2023-07-13T04:31:47;101047.84;;;15.16;100.00
14343;BME280;7255;53.596;9.960;2023-07-13T04:34:13;101057.72;;;15.23;100.00
14343;BME280;7255;53.596;9.960;2023-07-13T04:36:39;101053.59;;;15.20;100.00
14343;BME280;7255;53.596;9.960;2023-07-13T04:39:05;101054.75;;;15.24;100.00
14343;BME280;7255;53.596;9.960;2023-07-13T04:41:32;101058.53;;;15.23;100.00
14343;BME280;7255;53.596;9.960;2023-07-13T04:43:58;101060.50;;;15.28;100.00
14343;BME280;7255;53.596;9.960;2023-07-13T04:46:26;101058.69;;;15.33;100.00
14343;BME280;7255;53.596;9.960;2023-07-13T04:48:52;101051.78;;;15.43;100.00
14343;BME280;7255;53.596;9.960;2023-07-13T04:51:19;101050.59;;;15.55;100.00
14343;BME280;7255;53.596;9.960;2023-07-13T04:53:46;101058.97;;;15.54;100.00
14343;BME280;7255;53.596;9.960;2023-07-13T04:56:12;101050.91;;;15.59;100.00
14343;BME280;7255;53.596;9.960;2023-07-13T04:58:38;101060.91;;;15.75;100.00
14343;BME280;7255;53.596;9.960;2023-07-13T05:01:05;101071.22;;;15.78;100.00
14343;BME280;7255;53.596;9.960;2023-07-13T05:03:33;101067.59;;;15.90;100.00
14343;BME280;7255;53.596;9.960;2023-07-13T05:06:02;101074.34;;;15.87;100.00
14343;BME280;7255;53.596;9.960;2023-07-13T05:08:28;101075.16;;;15.88;100.00
14343;BME280;7255;53.596;9.960;2023-07-13T05:10:54;101080.38;;;15.94;100.00
14343;BME280;7255;53.596;9.960;2023-07-13T05:13:21;101086.12;;;15.98;100.00
14343;BME280;7255;53.596;9.960;2023-07-13T05:15:55;101073.31;;;15.93;100.00
14343;BME280;7255;53.596;9.960;2023-07-13T05:18:22;101087.56;;;16.06;100.00
14343;BME280;7255;53.596;9.960;2023-07-13T05:20:57;101081.47;;;16.15;100.00
14343;BME280;7255;53.596;9.960;2023-07-13T05:23:24;101086.81;;;16.32;100.00
14343;BME280;7255;53.596;9.960;2023-07-13T05:25:50;101094.91;;;16.54;100.00
14343;BME280;7255;53.596;9.960;2023-07-13T05:28:16;101083.63;;;16.68;100.00
14343;BME280;7255;53.596;9.960;2023-07-13T05:30:45;101088.00;;;16.74;100.00
14343;BME280;7255;53.596;9.960;2023-07-13T05:33:11;101087.94;;;16.64;100.00
14343;BME280;7255;53.596;9.960;2023-07-13T05:35:37;101094.47;;;16.68;100.00
14343;BME280;7255;53.596;9.960;2023-07-13T05:38:05;101100.31;;;16.54;100.00
14343;BME280;7255;53.596;9.960;2023-07-13T05:40:31;101100.44;;;16.43;100.00
14343;BME280;7255;53.596;9.960;2023-07-13T05:42:58;101098.66;;;16.53;100.00
14343;BME280;7255;53.596;9.960;2023-07-13T05:45:24;101097.69;;;16.65;100.00
14343;BME280;7255;53.596;9.960;2023-07-13T05:47:51;101095.22;;;16.85;100.00
14343;BME280;7255;53.596;9.960;2023-07-13T05:50:17;101103.09;;;16.87;100.00
14343;BME280;7255;53.596;9.960;2023-07-13T05:52:44;101096.53;;;16.83;100.00
14343;BME280;7255;53.596;9.960;2023-07-13T05:55:11;101110.34;;;16.81;100.00
14343;BME280;7255;53.596;9.960;2023-07-13T05:57:38;101108.81;;;16.90;100.00
14343;BME280;7255;53.596;9.960;2023-07-13T06:00:06;101098.78;;;16.64;100.00
14343;BME280;7255;53.596;9.960;2023-07-13T06:02:32;101106.75;;;16.48;100.00
14343;BME280;7255;53.596;9.960;2023-07-13T06:04:59;101109.84;;;16.57;100.00
14343;BME280;7255;53.596;9.960;2023-07-13T06:07:25;101113.34;;;16.80;100.00
14343;BME280;7255;53.596;9.960;2023-07-13T06:09:51;101118.75;;;16.80;100.00
14343;BME280;7255;53.596;9.960;2023-07-13T06:12:19;101125.81;;;16.81;100.00
14343;BME280;7255;53.596;9.960;2023-07-13T06:14:45;101118.63;;;16.91;100.00
14343;BME280;7255;53.596;9.960;2023-07-13T06:17:12;101121.72;;;17.05;100.00
14343;BME280;7255;53.596;9.960;2023-07-13T06:19:38;101124.56;;;17.21;100.00
14343;BME280;7255;53.596;9.960;2023-07-13T06:22:05;101126.31;;;17.05;100.00
14343;BME280;7255;53.596;9.960;2023-07-13T06:24:31;101124.09;;;16.97;100.00
14343;BME280;7255;53.596;9.960;2023-07-13T06:26:57;101127.53;;;17.19;100.00
14343;BME280;7255;53.596;9.960;2023-07-13T06:29:25;101136.94;;;17.39;100.00
14343;BME280;7255;53.596;9.960;2023-07-13T06:31:52;101131.78;;;17.42;100.00
14343;BME280;7255;53.596;9.960;2023-07-13T06:34:18;101137.22;;;17.42;100.00
14343;BME280;7255;53.596;9.960;2023-07-13T06:36:45;101135.56;;;17.41;100.00
14343;BME280;7255;53.596;9.960;2023-07-13T06:39:11;101140.03;;;17.58;100.00
14343;BME280;7255;53.596;9.960;2023-07-13T06:41:37;101133.78;;;17.57;100.00
14343;BME280;7255;53.596;9.960;2023-07-13T06:44:04;101144.72;;;17.67;100.00
14343;BME280;7255;53.596;9.960;2023-07-13T06:46:32;101139.81;;;17.64;100.00
14343;BME280;7255;53.596;9.960;2023-07-13T06:48:58;101137.72;;;17.77;100.00
14343;BME280;7255;53.596;9.960;2023-07-13T06:51:25;101133.62;;;17.74;100.00
14343;BME280;7255;53.596;9.960;2023-07-13T06:53:52;101144.88;;;17.88;100.00
14343;BME280;7255;53.596;9.960;2023-07-13T06:56:19;101150.22;;;17.78;100.00
14343;BME280;7255;53.596;9.960;2023-07-13T06:58:45;101146.00;;;17.92;100.00
14343;BME280;7255;53.596;9.960;2023-07-13T07:01:12;101133.00;;;18.04;100.00
14343;BME280;7255;53.596;9.960;2023-07-13T07:03:39;101138.91;;;17.91;100.00
14343;BME280;7255;53.596;9.960;2023-07-13T07:06:13;101141.09;;;17.94;100.00
14343;BME280;7255;53.596;9.960;2023-07-13T07:08:40;101139.63;;;18.29;100.00
14343;BME280;7255;53.596;9.960;2023-07-13T07:11:08;101144.19;;;18.18;100.00
14343;BME280;7255;53.596;9.960;2023-07-13T07:13:35;101152.16;;;18.30;100.00
14343;BME280;7255;53.596;9.960;2023-07-13T07:16:01;101147.59;;;18.51;100.00
14343;BME280;7255;53.596;9.960;2023-07-13T07:18:28;101139.09;;;18.32;100.00
14343;BME280;7255;53.596;9.960;2023-07-13T07:20:55;101150.22;;;18.25;100.00
14343;BME280;7255;53.596;9.960;2023-07-13T07:23:22;101136.66;;;18.31;100.00
14343;BME280;7255;53.596;9.960;2023-07-13T07:25:48;101145.16;;;18.60;100.00
14343;BME280;7255;53.596;9.960;2023-07-13T07:28:16;101159.06;;;18.79;100.00
14343;BME280;7255;53.596;9.960;2023-07-13T07:30:43;101153.88;;;18.62;100.00
14343;BME280;7255;53.596;9.960;2023-07-13T07:33:09;101147.34;;;18.68;100.00
14343;BME280;7255;53.596;9.960;2023-07-13T07:35:36;101149.88;;;18.90;100.00
14343;BME280;7255;53.596;9.960;2023-07-13T07:38:04;101156.44;;;19.15;100.00
14343;BME280;7255;53.596;9.960;2023-07-13T07:40:30;101160.53;;;19.38;100.00
14343;BME280;7255;53.596;9.960;2023-07-13T07:42:57;101164.34;;;19.47;100.00
14343;BME280;7255;53.596;9.960;2023-07-13T07:45:23;101161.59;;;19.32;100.00
14343;BME280;7255;53.596;9.960;2023-07-13T07:47:50;101155.06;;;19.28;100.00
14343;BME280;7255;53.596;9.960;2023-07-13T07:50:16;101159.44;;;19.23;100.00
14343;BME280;7255;53.596;9.960;2023-07-13T07:52:45;101153.69;;;19.30;100.00
14343;BME280;7255;53.596;9.960;2023-07-13T07:55:13;101161.59;;;19.32;100.00
14343;BME280;7255;53.596;9.960;2023-07-13T07:57:39;101160.81;;;19.11;100.00
14343;BME280;7255;53.596;9.960;2023-07-13T08:00:08;101149.63;;;19.07;100.00
14343;BME280;7255;53.596;9.960;2023-07-13T08:02:34;101156.97;;;19.01;100.00
14343;BME280;7255;53.596;9.960;2023-07-13T08:05:01;101148.00;;;19.11;100.00
14343;BME280;7255;53.596;9.960;2023-07-13T08:07:27;101157.25;;;19.36;100.00
14343;BME280;7255;53.596;9.960;2023-07-13T08:09:54;101146.34;;;19.41;100.00
14343;BME280;7255;53.596;9.960;2023-07-13T08:12:21;101144.16;;;19.48;100.00
14343;BME280;7255;53.596;9.960;2023-07-13T08:14:49;101146.31;;;19.67;100.00
14343;BME280;7255;53.596;9.960;2023-07-13T08:17:18;101154.19;;;19.99;100.00
14343;BME280;7255;53.596;9.960;2023-07-13T08:19:45;101150.44;;;20.45;100.00
14343;BME280;7255;53.596;9.960;2023-07-13T08:22:11;101148.50;;;20.61;100.00
14343;BME280;7255;53.596;9.960;2023-07-13T08:24:38;101159.72;;;20.44;100.00
14343;BME280;7255;53.596;9.960;2023-07-13T08:27:05;101159.72;;;20.44;100.00
14343;BME280;7255;53.596;9.960;2023-07-13T08:29:32;101158.47;;;20.15;100.00
14343;BME280;7255;53.596;9.960;2023-07-13T08:31:59;101174.22;;;20.39;100.00
14343;BME280;7255;53.596;9.960;2023-07-13T08:34:25;101169.69;;;20.09;100.00
14343;BME280;7255;53.596;9.960;2023-07-13T08:36:51;101186.34;;;20.02;100.00
14343;BME280;7255;53.596;9.960;2023-07-13T08:39:18;101176.81;;;19.94;100.00
14343;BME280;7255;53.596;9.960;2023-07-13T08:41:45;101185.56;;;19.60;100.00
14343;BME280;7255;53.596;9.960;2023-07-13T08:44:20;101168.16;;;19.56;100.00
14343;BME280;7255;53.596;9.960;2023-07-13T08:46:50;101162.44;;;19.42;100.00
14343;BME280;7255;53.596;9.960;2023-07-13T08:49:21;101169.78;;;19.47;100.00
14343;BME280;7255;53.596;9.960;2023-07-13T08:51:51;101161.31;;;19.59;100.00
14343;BME280;7255;53.596;9.960;2023-07-13T08:54:23;101156.97;;;19.73;100.00
14343;BME280;7255;53.596;9.960;2023-07-13T08:56:53;101166.47;;;19.86;100.00
14343;BME280;7255;53.596;9.960;2023-07-13T08:59:22;101164.56;;;19.81;100.00
14343;BME280;7255;53.596;9.960;2023-07-13T09:02:09;101158.31;;;19.60;100.00
14343;BME280;7255;53.596;9.960;2023-07-13T09:04:50;101171.94;;;19.55;100.00
14343;BME280;7255;53.596;9.960;2023-07-13T09:07:23;101162.09;;;19.90;100.00
14343;BME280;7255;53.596;9.960;2023-07-13T09:10:02;101165.87;;;20.10;100.00
14343;BME280;7255;53.596;9.960;2023-07-13T09:12:38;101168.00;;;20.18;100.00
14343;BME280;7255;53.596;9.960;2023-07-13T09:15:20;101169.59;;;20.29;100.00
14343;BME280;7255;53.596;9.960;2023-07-13T09:17:50;101168.84;;;20.18;100.00
14343;BME280;7255;53.596;9.960;2023-07-13T09:20:23;101166.69;;;20.00;100.00
14343;BME280;7255;53.596;9.960;2023-07-13T09:22:52;101172.31;;;20.34;100.00
14343;BME280;7255;53.596;9.960;2023-07-13T09:25:24;101174.75;;;20.36;100.00
14343;BME280;7255;53.596;9.960;2023-07-13T09:27:55;101163.41;;;20.18;100.00
14343;BME280;7255;53.596;9.960;2023-07-13T09:30:26;101174.53;;;20.22;100.00
14343;BME280;7255;53.596;9.960;2023-07-13T09:32:56;101165.00;;;20.19;100.00
14343;BME280;7255;53.596;9.960;2023-07-13T09:35:26;101165.28;;;20.13;100.00
14343;BME280;7255;53.596;9.960;2023-07-13T09:37:57;101175.03;;;20.39;100.00
14343;BME280;7255;53.596;9.960;2023-07-13T09:40:30;101180.13;;;20.56;100.00
14343;BME280;7255;53.596;9.960;2023-07-13T09:42:59;101164.75;;;20.81;100.00
14343;BME280;7255;53.596;9.960;2023-07-13T09:45:30;101166.00;;;20.99;100.00
14343;BME280;7255;53.596;9.960;2023-07-13T09:48:04;101174.88;;;21.15;100.00
14343;BME280;7255;53.596;9.960;2023-07-13T09:50:31;101174.44;;;21.32;100.00
14343;BME280;7255;53.596;9.960;2023-07-13T09:52:57;101176.56;;;21.40;100.00
14343;BME280;7255;53.596;9.960;2023-07-13T09:55:28;101180.34;;;21.49;100.00
14343;BME280;7255;53.596;9.960;2023-07-13T09:57:55;101180.66;;;21.43;100.00
14343;BME280;7255;53.596;9.960;2023-07-13T10:00:23;101188.56;;;21.44;100.00
14343;BME280;7255;53.596;9.960;2023-07-13T10:03:03;101191.00;;;21.80;100.00
14343;BME280;7255;53.596;9.960;2023-07-13T10:05:41;101187.62;;;21.88;100.00
14343;BME280;7255;53.596;9.960;2023-07-13T10:08:21;101195.31;;;21.86;100.00
14343;BME280;7255;53.596;9.960;2023-07-13T10:10:52;101188.56;;;21.79;98.66
14343;BME280;7255;53.596;9.960;2023-07-13T10:13:29;101185.28;;;21.77;97.55
14343;BME280;7255;53.596;9.960;2023-07-13T10:15:57;101183.06;;;21.55;97.30
14343;BME280;7255;53.596;9.960;2023-07-13T10:18:26;101184.91;;;21.59;99.82
14343;BME280;7255;53.596;9.960;2023-07-13T10:21:00;101183.84;;;21.55;97.44
14343;BME280;7255;53.596;9.960;2023-07-13T10:23:35;101179.59;;;21.73;94.90
14343;BME280;7255;53.596;9.960;2023-07-13T10:26:03;101178.84;;;22.16;96.73
14343;BME280;7255;53.596;9.960;2023-07-13T10:28:34;101166.91;;;21.82;92.17
14343;BME280;7255;53.596;9.960;2023-07-13T10:31:04;101172.84;;;21.89;94.93
14343;BME280;7255;53.596;9.960;2023-07-13T10:33:37;101172.72;;;22.00;94.24
14343;BME280;7255;53.596;9.960;2023-07-13T10:36:13;101182.84;;;22.23;91.92
14343;BME280;7255;53.596;9.960;2023-07-13T10:38:40;101173.09;;;22.41;87.95
14343;BME280;7255;53.596;9.960;2023-07-13T10:41:11;101193.31;;;22.64;86.37
14343;BME280;7255;53.596;9.960;2023-07-13T10:43:43;101173.19;;;22.55;81.82
14343;BME280;7255;53.596;9.960;2023-07-13T10:46:12;101165.13;;;22.64;82.92
14343;BME280;7255;53.596;9.960;2023-07-13T10:48:43;101174.97;;;22.65;85.18
14343;BME280;7255;53.596;9.960;2023-07-13T10:51:13;101180.88;;;22.91;84.14
14343;BME280;7255;53.596;9.960;2023-07-13T10:53:40;101182.50;;;22.92;76.40
14343;BME280;7255;53.596;9.960;2023-07-13T10:56:20;101165.09;;;23.02;79.10
14343;BME280;7255;53.596;9.960;2023-07-13T10:59:01;101169.91;;;22.91;74.24
14343;BME280;7255;53.596;9.960;2023-07-13T11:01:39;101176.00;;;22.88;78.91
14343;BME280;7255;53.596;9.960;2023-07-13T11:04:12;101179.56;;;23.08;81.80
14343;BME280;7255;53.596;9.960;2023-07-13T11:06:48;101170.69;;;23.30;76.35
14343;BME280;7255;53.596;9.960;2023-07-13T11:09:31;101175.94;;;23.59;76.86
14343;BME280;7255;53.596;9.960;2023-07-13T11:11:59;101173.63;;;23.52;75.07
14343;BME280;7255;53.596;9.960;2023-07-13T11:14:29;101177.88;;;23.44;75.59
14343;BME280;7255;53.596;9.960;2023-07-13T11:16:56;101185.22;;;23.63;71.88
14343;BME280;7255;53.596;9.960;2023-07-13T11:19:40;101175.44;;;23.57;74.86
14343;BME280;7255;53.596;9.960;2023-07-13T11:22:16;101165.78;;;23.13;72.61
14343;BME280;7255;53.596;9.960;2023-07-13T11:25:20;101169.63;;;22.74;73.29
14343;BME280;7255;53.596;9.960;2023-07-13T11:27:51;101177.34;;;22.72;74.32
14343;BME280;7255;53.596;9.960;2023-07-13T11:30:35;101175.84;;;22.60;72.60
14343;BME280;7255;53.596;9.960;2023-07-13T11:33:07;101178.78;;;22.45;72.99
14343;BME280;7255;53.596;9.960;2023-07-13T11:35:44;101188.28;;;22.72;75.21
14343;BME280;7255;53.596;9.960;2023-07-13T11:38:15;101185.56;;;22.72;74.21
14343;BME280;7255;53.596;9.960;2023-07-13T11:40:44;101176.88;;;22.64;77.46
14343;BME280;7255;53.596;9.960;2023-07-13T11:43:13;101177.03;;;22.54;80.74
14343;BME280;7255;53.596;9.960;2023-07-13T11:45:40;101185.28;;;22.25;76.92
14343;BME280;7255;53.596;9.960;2023-07-13T11:48:18;101187.97;;;22.54;81.84
14343;BME280;7255;53.596;9.960;2023-07-13T11:50:51;101176.06;;;22.83;76.93
14343;BME280;7255;53.596;9.960;2023-07-13T11:53:19;101189.91;;;22.73;73.52
14343;BME280;7255;53.596;9.960;2023-07-13T11:55:47;101196.47;;;22.53;77.05
14343;BME280;7255;53.596;9.960;2023-07-13T11:58:17;101201.72;;;22.25;73.92
14343;BME280;7255;53.596;9.960;2023-07-13T12:00:46;101205.97;;;22.12;76.76
14343;BME280;7255;53.596;9.960;2023-07-13T12:03:17;101198.47;;;22.23;79.05
14343;BME280;7255;53.596;9.960;2023-07-13T12:05:57;101187.75;;;22.51;77.96
14343;BME280;7255;53.596;9.960;2023-07-13T12:08:23;101192.81;;;22.81;77.88
14343;BME280;7255;53.596;9.960;2023-07-13T12:11:00;101200.84;;;22.73;74.77
14343;BME280;7255;53.596;9.960;2023-07-13T12:13:35;101214.56;;;22.29;78.81
14343;BME280;7255;53.596;9.960;2023-07-13T12:16:01;101246.84;;;21.40;88.65
14343;BME280;7255;53.596;9.960;2023-07-13T12:18:30;101279.59;;;19.68;100.00
14343;BME280;7255;53.596;9.960;2023-07-13T12:21:00;101280.06;;;17.70;100.00
14343;BME280;7255;53.596;9.960;2023-07-13T12:23:29;101300.53;;;16.58;100.00
14343;BME280;7255;53.596;9.960;2023-07-13T12:25:58;101287.78;;;16.19;100.00
14343;BME280;7255;53.596;9.960;2023-07-13T12:28:32;101285.66;;;16.04;100.00
14343;BME280;7255;53.596;9.960;2023-07-13T12:31:00;101280.91;;;15.77;100.00
14343;BME280;7255;53.596;9.960;2023-07-13T12:33:27;101283.50;;;15.72;100.00
14343;BME280;7255;53.596;9.960;2023-07-13T12:35:55;101288.47;;;15.75;100.00
14343;BME280;7255;53.596;9.960;2023-07-13T12:38:24;101290.09;;;15.93;100.00
14343;BME280;7255;53.596;9.960;2023-07-13T12:40:52;101304.37;;;16.23;100.00
14343;BME280;7255;53.596;9.960;2023-07-13T12:43:20;101301.69;;;16.62;100.00
14343;BME280;7255;53.596;9.960;2023-07-13T12:45:58;101293.31;;;17.07;100.00
14343;BME280;7255;53.596;9.960;2023-07-13T12:48:25;101302.59;;;17.39;100.00
14343;BME280;7255;53.596;9.960;2023-07-13T12:50:53;101311.25;;;17.63;100.00
14343;BME280;7255;53.596;9.960;2023-07-13T12:53:22;101319.97;;;17.65;100.00
14343;BME280;7255;53.596;9.960;2023-07-13T12:55:52;101314.63;;;17.48;100.00
14343;BME280;7255;53.596;9.960;2023-07-13T12:58:23;101327.63;;;18.00;100.00
14343;BME280;7255;53.596;9.960;2023-07-13T13:00:54;101325.09;;;18.26;100.00